Map

Track Data

SID SEASON NUMBER BASIN SUBBASIN NAME ISO_TIME NATURE LAT LON WMO_WIND WMO_PRES WMO_AGENCY TRACK_TYPE DIST2LAND LANDFALL IFLAG USA_AGENCY USA_ATCF_ID USA_LAT USA_LON USA_RECORD USA_STATUS USA_WIND USA_PRES USA_SSHS USA_R34_NE USA_R34_SE USA_R34_SW USA_R34_NW USA_R50_NE USA_R50_SE USA_R50_SW USA_R50_NW USA_R64_NE USA_R64_SE USA_R64_SW USA_R64_NW USA_POCI USA_ROCI USA_RMW USA_EYE TOKYO_LAT TOKYO_LON TOKYO_GRADE TOKYO_WIND TOKYO_PRES TOKYO_R50_DIR TOKYO_R50_LONG TOKYO_R50_SHORT TOKYO_R30_DIR TOKYO_R30_LONG TOKYO_R30_SHORT TOKYO_LAND CMA_LAT CMA_LON CMA_CAT CMA_WIND CMA_PRES HKO_LAT HKO_LON HKO_CAT HKO_WIND HKO_PRES NEWDELHI_LAT NEWDELHI_LON NEWDELHI_GRADE NEWDELHI_WIND NEWDELHI_PRES NEWDELHI_CI NEWDELHI_DP NEWDELHI_POCI REUNION_LAT REUNION_LON REUNION_TYPE REUNION_WIND REUNION_PRES REUNION_TNUM REUNION_CI REUNION_RMW REUNION_R34_NE REUNION_R34_SE REUNION_R34_SW REUNION_R34_NW REUNION_R50_NE REUNION_R50_SE REUNION_R50_SW REUNION_R50_NW REUNION_R64_NE REUNION_R64_SE REUNION_R64_SW REUNION_R64_NW BOM_LAT BOM_LON BOM_TYPE BOM_WIND BOM_PRES BOM_TNUM BOM_CI BOM_RMW BOM_R34_NE BOM_R34_SE BOM_R34_SW BOM_R34_NW BOM_R50_NE BOM_R50_SE BOM_R50_SW BOM_R50_NW BOM_R64_NE BOM_R64_SE BOM_R64_SW BOM_R64_NW BOM_ROCI BOM_POCI BOM_EYE BOM_POS_METHOD BOM_PRES_METHOD NADI_LAT NADI_LON NADI_CAT NADI_WIND NADI_PRES WELLINGTON_LAT WELLINGTON_LON WELLINGTON_WIND WELLINGTON_PRES DS824_LAT DS824_LON DS824_STAGE DS824_WIND DS824_PRES TD9636_LAT TD9636_LON TD9636_STAGE TD9636_WIND TD9636_PRES TD9635_LAT TD9635_LON TD9635_WIND TD9635_PRES TD9635_ROCI NEUMANN_LAT NEUMANN_LON NEUMANN_CLASS NEUMANN_WIND NEUMANN_PRES MLC_LAT MLC_LON MLC_CLASS MLC_WIND MLC_PRES USA_GUST BOM_GUST BOM_GUST_PER REUNION_GUST REUNION_GUST_PER USA_SEAHGT USA_SEARAD_NE USA_SEARAD_SE USA_SEARAD_SW USA_SEARAD_NW STORM_SPEED STORM_DIR
2014159N12068 2014 32 NI AS NANAUK 2014-06-08 06:00:00 NR 12.4000 68.3000 main 676 671 O_____________ jtwc_io IO022014 12.4000 68.3000 DB 20 1007 -3 1004 160 45 5 324
2014159N12068 2014 32 NI AS NANAUK 2014-06-08 09:00:00 NR 12.6200 68.1401 main 686 681 P_____________ IO022014 12.6200 68.1401 DB 20 1007 -3 1004 160 45 5 324
2014159N12068 2014 32 NI AS NANAUK 2014-06-08 12:00:00 NR 12.8000 68.0000 main 687 682 O_____________ jtwc_io IO022014 12.8000 68.0000 DB 20 1007 -3 1004 160 45 4 321
2014159N12068 2014 32 NI AS NANAUK 2014-06-08 15:00:00 NR 12.9150 67.8925 main 692 688 P_____________ IO022014 12.9150 67.8925 DB 22 1005 -3 1004 160 45 3 316
2014159N12068 2014 32 NI AS NANAUK 2014-06-08 18:00:00 TS 13.0000 67.8000 main 699 699 O_____________ jtwc_io IO022014 13.0000 67.8000 TD 25 1004 -1 1004 160 45 3 311
2014159N12068 2014 32 NI AS NANAUK 2014-06-08 21:00:00 TS 13.1000 67.6775 main 704 704 P_____________ IO022014 13.1000 67.6775 TD 25 1003 -1 1004 160 45 3 316
2014159N12068 2014 32 NI AS NANAUK 2014-06-09 00:00:00 TS 13.2000 67.6000 main 710 705 O_____________ jtwc_io IO022014 13.2000 67.6000 TD 25 1002 -1 1004 160 45 2 332
2014159N12068 2014 32 NI AS NANAUK 2014-06-09 03:00:00 TS 13.2849 67.5751 main 705 691 P_____________ IO022014 13.2849 67.5751 TD 27 1001 -1 1004 160 45 2 27
2014159N12068 2014 32 NI AS NANAUK 2014-06-09 06:00:00 TS 13.4000 67.7000 main 691 653 O_____________ jtwc_io IO022014 13.4000 67.7000 TD 30 1000 -1 1004 160 45 5 59
2014159N12068 2014 32 NI AS NANAUK 2014-06-09 09:00:00 TS 13.5626 68.0550 main 643 594 P_____________ IO022014 13.5626 68.0550 TD 30 1000 -1 1004 165 45 9 63
2014159N12068 2014 32 NI AS NANAUK 2014-06-09 12:00:00 TS 13.8000 68.5000 main 594 542 O_____________ jtwc_io IO022014 13.8000 68.5000 TD 30 1000 -1 1004 170 45 10 56
2014159N12068 2014 32 NI AS NANAUK 2014-06-09 15:00:00 TS 14.1351 68.9247 main 542 493 P_____________ IO022014 14.1351 68.9247 TD 30 1000 -1 1003 180 50 10 44
2014159N12068 2014 32 NI AS NANAUK 2014-06-09 18:00:00 TS 14.5000 69.2000 main 493 478 O_____________ jtwc_io IO022014 14.5000 69.2000 TD 30 1000 -1 1003 190 55 7 20
2014159N12068 2014 32 NI AS NANAUK 2014-06-09 21:00:00 TS 14.8074 69.1827 main 478 474 P_____________ IO022014 14.8074 69.1827 TD 32 998 -1 1002 185 55 6 342
2014159N12068 2014 32 NI AS NANAUK 2014-06-10 00:00:00 TS 15.1000 69.0000 main 486 482 O_____________ jtwc_io IO022014 15.1000 69.0000 TS 35 996 0 1001 180 55 7 330
2014159N12068 2014 32 NI AS NANAUK 2014-06-10 03:00:00 TS 15.4150 68.8225 main 496 493 P_____________ IO022014 15.4150 68.8225 TS 37 994 0 1001 180 47 7 327
2014159N12068 2014 32 NI AS NANAUK 2014-06-10 06:00:00 TS 15.7000 68.6000 main 510 510 O_____________ jtwc_io IO022014 15.7000 68.6000 TS 40 993 0 50 50 50 50 1001 180 40 6 315
2014159N12068 2014 32 NI AS NANAUK 2014-06-10 09:00:00 TS 15.8380 68.3860 25 998 newdelhi main 529 527 P___O_________ IO022014 15.9225 68.3575 TS 42 991 0 50 50 50 50 1001 180 37 15.5000 68.5000 D 25 998 1.50000 3 6 306
2014159N12068 2014 32 NI AS NANAUK 2014-06-10 12:00:00 TS 16.0667 68.0667 25 996 newdelhi main 556 556 O___O_________ jtwc_io IO022014 16.1000 68.1000 TS 45 989 0 50 50 50 50 1001 180 35 16.0000 68.0000 D 25 996 1.50000 3 7 308
2014159N12068 2014 32 NI AS NANAUK 2014-06-10 15:00:00 TS 16.2950 67.7750 main 581 581 P___P_________ IO022014 16.2650 67.8425 TS 47 987 0 52 52 52 52 1000 180 37 16.3351 67.6850 D 27 995 4 6 308
2014159N12068 2014 32 NI AS NANAUK 2014-06-10 18:00:00 TS 16.4500 67.5500 30 994 newdelhi main 578 578 O___O_________ jtwc_io IO022014 16.4000 67.6000 TS 50 985 0 55 55 55 55 1000 180 40 16.5000 67.5000 DD 30 994 2.00000 5 4 297
2014159N12068 2014 32 NI AS NANAUK 2014-06-10 21:00:00 TS 16.4928 67.3731 main 590 590 P___P_________ IO022014 16.4924 67.3999 TS 52 983 0 55 55 55 55 999 185 30 16.4931 67.3464 DD 32 993 6 4 287
2014159N12068 2014 32 NI AS NANAUK 2014-06-11 00:00:00 TS 16.5500 67.2000 35 992 newdelhi main 593 590 O___O_________ jtwc_io IO022014 16.6000 67.2000 TS 55 982 0 55 55 55 55 20 20 20 20 999 190 20 16.5000 67.2000 CS 35 992 2.50000 8 5 303
2014159N12068 2014 32 NI AS NANAUK 2014-06-11 03:00:00 TS 16.7387 66.9787 35 992 newdelhi main 596 587 P___O_________ IO022014 16.7775 66.9575 TS 55 982 0 60 55 55 60 25 22 22 25 998 190 20 16.7000 67.0000 CS 35 992 2.50000 8 6 310
2014159N12068 2014 32 NI AS NANAUK 2014-06-11 06:00:00 TS 16.9500 66.7000 45 990 newdelhi main 587 585 O___O_________ jtwc_io IO022014 17.0000 66.7000 TS 55 982 0 65 55 55 65 30 25 25 30 998 190 20 16.9000 66.7000 CS 45 990 3.00000 10 6 309
2014159N12068 2014 32 NI AS NANAUK 2014-06-11 09:00:00 TS 17.1325 66.4750 45 990 newdelhi main 592 582 P___O_________ IO022014 17.2650 66.4501 TS 55 982 0 67 57 57 67 35 30 30 35 999 190 20 17.0000 66.5000 CS 45 990 3.00000 10 7 313
2014159N12068 2014 32 NI AS NANAUK 2014-06-11 12:00:00 TS 17.4000 66.2000 45 988 newdelhi main 589 589 O___O_________ jtwc_io IO022014 17.5000 66.2000 TS 55 982 0 70 60 60 70 40 35 35 40 1000 190 20 17.3000 66.2000 CS 45 988 3.00000 10 6 312
2014159N12068 2014 32 NI AS NANAUK 2014-06-11 15:00:00 TS 17.5575 65.9749 45 988 newdelhi main 589 589 P___O_________ IO022014 17.6150 65.9498 TS 55 982 0 70 60 60 70 40 35 35 40 998 190 20 17.5000 66.0000 CS 45 988 3.00000 10 5 295
2014159N12068 2014 32 NI AS NANAUK 2014-06-11 18:00:00 TS 17.6000 65.7500 45 988 newdelhi main 604 611 O___O_________ jtwc_io IO022014 17.7000 65.7000 TS 55 982 0 70 60 60 70 40 35 35 40 997 190 20 17.5000 65.8000 CS 45 988 3.00000 10 4 287
2014159N12068 2014 32 NI AS NANAUK 2014-06-11 21:00:00 TS 17.6750 65.5788 45 988 newdelhi main 611 611 P___O_________ IO022014 17.8499 65.4575 TS 55 982 0 65 55 55 65 40 35 35 40 997 185 20 17.5000 65.7000 CS 45 988 3.00000 10 6 302
2014159N12068 2014 32 NI AS NANAUK 2014-06-12 00:00:00 TS 17.9000 65.2500 45 986 newdelhi main 618 618 O___O_________ jtwc_io IO022014 18.0000 65.2000 TS 55 982 0 60 50 50 60 40 35 35 40 997 180 20 17.8000 65.3000 CS 45 986 3.00000 10 7 302
2014159N12068 2014 32 NI AS NANAUK 2014-06-12 03:00:00 TS 18.0463 64.9462 45 986 newdelhi main 636 628 P___O_________ IO022014 18.0925 64.8924 TS 50 985 0 70 57 65 70 20 17 17 20 997 180 20 18.0000 65.0000 CS 45 986 3.00000 10 6 294
2014159N12068 2014 32 NI AS NANAUK 2014-06-12 06:00:00 TS 18.1500 64.6500 45 986 newdelhi main 634 636 O___O_________ jtwc_io IO022014 18.2000 64.6000 TS 45 989 0 80 65 80 80 997 180 20 18.1000 64.7000 CS 45 986 3.00000 10 6 296
2014159N12068 2014 32 NI AS NANAUK 2014-06-12 09:00:00 TS 18.3357 64.3357 45 988 newdelhi main 627 597 P___O_________ IO022014 18.3625 64.3625 TS 42 991 0 80 65 80 80 997 180 20 18.3000 64.3000 CS 45 988 3.00000 10 6 304
2014159N12068 2014 32 NI AS NANAUK 2014-06-12 12:00:00 TS 18.5000 64.1000 45 988 newdelhi main 597 570 O___O_________ jtwc_io IO022014 18.6000 64.2000 TS 40 993 0 80 65 80 80 997 180 20 18.3000 63.9000 CS 45 988 3.00000 10 6 323
2014159N12068 2014 32 NI AS NANAUK 2014-06-12 15:00:00 TS 18.7779 63.9862 45 988 newdelhi main 570 551 P___O_________ IO022014 18.8974 64.0828 TS 37 994 0 80 65 80 80 996 180 20 18.3000 63.6000 CS 45 988 3.00000 10 8 1
2014159N12068 2014 32 NI AS NANAUK 2014-06-12 18:00:00 TS 19.3000 64.1000 45 988 newdelhi main 551 541 O_____________ jtwc_io IO022014 19.3000 64.1000 TS 35 996 0 80 65 80 80 996 180 20 12 20
2014159N12068 2014 32 NI AS NANAUK 2014-06-12 21:00:00 TS 19.8741 64.4002 45 988 newdelhi main 538 489 P_____________ IO022014 19.8741 64.4002 TS 30 1000 -1 995 180 20 12 23
2014159N12068 2014 32 NI AS NANAUK 2014-06-13 00:00:00 TS 20.4000 64.6000 45 988 newdelhi main 489 477 O_____________ jtwc_io IO022014 20.4000 64.6000 TD 25 1004 -1 995 180 20 8 359
2014159N12068 2014 32 NI AS NANAUK 2014-06-13 03:00:00 TS 20.7000 64.4000 45 990 newdelhi main 477 447 O_____________ jtwc_io IO022014 20.7000 64.4000 TD 25 1004 -1 995 180 20 10 325
2014159N12068 2014 32 NI AS NANAUK 2014-06-13 06:00:00 NR 21.2000 64.0000 40 992 newdelhi main 447 426 O_____________ jtwc_io IO022014 21.2000 64.0000 DB 20 1007 -3 997 170 5 8 326
2014159N12068 2014 32 NI AS NANAUK 2014-06-13 09:00:00 NR 21.3885 63.9042 30 994 newdelhi main 426 426 P_____________ IO022014 21.3885 63.9042 DB 20 1007 -3 999 170 5 2 8
2014159N12068 2014 32 NI AS NANAUK 2014-06-13 12:00:00 NR 21.4000 64.0000 25 996 newdelhi main 426 414 O_____________ jtwc_io IO022014 21.4000 64.0000 DB 20 1007 -3 1001 170 5 2 67
2014159N12068 2014 32 NI AS NANAUK 2014-06-13 15:00:00 NR 21.4575 64.0775 main 414 414 P_____________ IO022014 21.4575 64.0775 DB 20 1007 -3 1001 170 5 2 61
2014159N12068 2014 32 NI AS NANAUK 2014-06-13 18:00:00 NR 21.5000 64.2000 25 996 newdelhi main 414 413 O_____________ jtwc_io IO022014 21.5000 64.2000 DB 20 1007 -3 1001 170 5 3 69
2014159N12068 2014 32 NI AS NANAUK 2014-06-13 21:00:00 NR 21.5500 64.3425 main 402 400 P_____________ IO022014 21.5500 64.3425 DB 20 1007 -3 1001 170 5 3 70
2014159N12068 2014 32 NI AS NANAUK 2014-06-14 00:00:00 NR 21.6000 64.5000 25 996 newdelhi main 400 385 O_____________ jtwc_io IO022014 21.6000 64.5000 DB 20 1007 -3 1001 170 5 3 69
2014159N12068 2014 32 NI AS NANAUK 2014-06-14 03:00:00 NR 21.6575 64.6425 main 385 370 P_____________ IO022014 21.6575 64.6425 DB 17 1008 -3 1001 170 5 3 70
2014159N12068 2014 32 NI AS NANAUK 2014-06-14 06:00:00 NR 21.7000 64.8000 main 370 355 O_____________ jtwc_io IO022014 21.7000 64.8000 DB 15 1010 -3 1001 170 5 3 81
2014159N12068 2014 32 NI AS NANAUK 2014-06-14 09:00:00 NR 21.7101 64.9900 main 355 340 P_____________ IO022014 21.7101 64.9900 DB 15 1010 -3 1001 170 5 4 90
2014159N12068 2014 32 NI AS NANAUK 2014-06-14 12:00:00 NR 21.7000 65.2000 main 340 O_____________ jtwc_io IO022014 21.7000 65.2000 DB 15 1010 -3 1001 170 5 4 93

About IBTrACS Database

This database is a web-friendly format of International Best Track Archive for Climate Stewardship (IBTrACS), a global best track data archive curated by NOAA dating back to 1842.

Updated: 2021-11-26